createdAt,value
2023-03-11T00:00:39.083Z,986.08
2023-03-11T00:05:41.505Z,986.18
2023-03-11T00:10:45.497Z,986.22
2023-03-11T00:15:49.728Z,986.40
2023-03-11T00:20:53.830Z,986.58
2023-03-11T00:25:58.004Z,986.63
2023-03-11T00:31:02.230Z,986.67
2023-03-11T00:36:06.489Z,986.78
2023-03-11T00:41:10.498Z,986.94
2023-03-11T00:46:14.745Z,986.98
2023-03-11T00:51:18.833Z,986.97
2023-03-11T00:56:22.989Z,987.05
2023-03-11T01:01:27.227Z,987.15
2023-03-11T01:06:44.520Z,987.18
2023-03-11T01:11:35.488Z,987.37
2023-03-11T01:16:39.677Z,987.41
2023-03-11T01:21:43.805Z,987.39
2023-03-11T01:26:47.966Z,987.52
2023-03-11T01:31:52.158Z,987.58
2023-03-11T01:36:56.304Z,987.55
2023-03-11T01:42:00.507Z,987.65
2023-03-11T01:47:04.684Z,987.63
2023-03-11T01:52:06.913Z,987.73
2023-03-11T01:57:11.100Z,987.77
2023-03-11T02:02:13.406Z,987.80
2023-03-11T02:07:17.514Z,987.89
2023-03-11T02:12:21.698Z,987.97
2023-03-11T02:17:25.886Z,987.96
2023-03-11T02:22:30.038Z,987.98
2023-03-11T02:27:34.176Z,988.09
2023-03-11T02:32:38.402Z,987.98
2023-03-11T02:37:42.543Z,987.95
2023-03-11T02:42:46.678Z,988.14
2023-03-11T02:47:50.876Z,988.17
2023-03-11T02:52:55.038Z,988.25
2023-03-11T02:57:59.195Z,988.44
2023-03-11T03:03:03.342Z,988.50
2023-03-11T03:08:07.550Z,988.53
2023-03-11T03:13:11.674Z,988.61
2023-03-11T03:18:15.880Z,988.65
2023-03-11T03:23:19.995Z,988.66
2023-03-11T03:28:24.205Z,988.71
2023-03-11T03:33:28.352Z,988.80
2023-03-11T03:38:32.528Z,988.86
2023-03-11T03:43:36.670Z,988.87
2023-03-11T03:48:38.957Z,988.98
2023-03-11T03:53:43.136Z,988.99
2023-03-11T03:58:47.291Z,989.05
2023-03-11T04:03:49.691Z,989.10
2023-03-11T04:08:53.752Z,989.16
2023-03-11T04:13:57.906Z,989.21
2023-03-11T04:19:02.088Z,989.21
2023-03-11T04:24:06.226Z,989.25
2023-03-11T04:29:10.432Z,989.19
2023-03-11T04:34:14.566Z,989.30
2023-03-11T04:39:18.724Z,989.44
2023-03-11T04:44:22.870Z,989.44
2023-03-11T04:49:27.074Z,989.56
2023-03-11T04:54:31.262Z,989.65
2023-03-11T04:59:35.398Z,989.80
2023-03-11T05:04:39.565Z,989.80
2023-03-11T05:09:43.718Z,989.84
2023-03-11T05:14:47.875Z,989.95
2023-03-11T05:19:52.065Z,989.94
2023-03-11T05:24:56.232Z,989.94
2023-03-11T05:30:00.466Z,990.12
2023-03-11T05:35:04.523Z,990.20
2023-03-11T05:40:08.707Z,990.33
2023-03-11T05:45:12.918Z,990.35
2023-03-11T05:50:15.202Z,990.37
2023-03-11T05:55:19.297Z,990.49
2023-03-11T06:00:21.629Z,990.60
2023-03-11T06:10:29.968Z,990.63
2023-03-11T06:15:34.124Z,990.69
2023-03-11T06:20:38.279Z,990.55
2023-03-11T06:25:42.426Z,990.60
2023-03-11T06:30:46.669Z,990.67
2023-03-11T06:35:50.832Z,990.97
2023-03-11T06:40:54.945Z,990.96
2023-03-11T06:45:59.263Z,991.05
2023-03-11T06:51:03.257Z,991.14
2023-03-11T06:56:07.425Z,991.28
2023-03-11T07:01:11.708Z,991.39
2023-03-11T07:06:15.749Z,991.48
2023-03-11T07:11:20.241Z,991.56
2023-03-11T07:16:24.156Z,991.66
2023-03-11T07:21:28.285Z,991.66
2023-03-11T07:26:32.450Z,991.77
2023-03-11T07:31:36.621Z,991.87
2023-03-11T07:36:40.755Z,991.85
2023-03-11T07:41:44.944Z,991.87
2023-03-11T07:46:49.072Z,991.94
2023-03-11T07:51:51.362Z,992.08
2023-03-11T07:56:55.518Z,992.15
2023-03-11T08:01:57.816Z,992.26
2023-03-11T08:07:01.957Z,992.23
2023-03-11T08:12:06.142Z,992.31
2023-03-11T08:17:10.289Z,992.28
2023-03-11T08:22:14.495Z,992.14
2023-03-11T08:27:18.666Z,992.09
2023-03-11T08:32:22.893Z,992.09
2023-03-11T08:37:26.978Z,992.10
2023-03-11T08:42:31.148Z,992.04
2023-03-11T08:47:35.330Z,991.83
2023-03-11T08:52:39.457Z,991.67
2023-03-11T08:57:43.640Z,991.21
2023-03-11T09:02:47.822Z,990.86
2023-03-11T09:07:51.977Z,990.76
2023-03-11T09:12:56.108Z,990.62
2023-03-11T09:18:00.265Z,990.38
2023-03-11T09:23:04.435Z,990.35
2023-03-11T09:28:08.631Z,990.23
2023-03-11T09:33:13.252Z,989.96
2023-03-11T09:38:16.941Z,989.82
2023-03-11T09:43:21.092Z,989.83
2023-03-11T09:48:23.394Z,989.84
2023-03-11T09:53:27.543Z,989.79
2023-03-11T09:58:29.832Z,989.80
2023-03-11T10:03:34.003Z,989.81
2023-03-11T10:08:38.135Z,989.87
2023-03-11T10:13:42.330Z,990.28
2023-03-11T10:18:46.557Z,990.43
2023-03-11T10:23:50.736Z,990.49
2023-03-11T10:28:54.782Z,990.44
2023-03-11T10:33:58.994Z,990.66
2023-03-11T10:39:03.161Z,990.83
2023-03-11T10:44:07.290Z,990.77
2023-03-11T10:49:11.447Z,991.13
2023-03-11T10:54:15.599Z,990.93
2023-03-11T10:59:19.798Z,991.32
2023-03-11T11:04:24.022Z,991.46
2023-03-11T11:09:28.407Z,991.48
2023-03-11T11:14:32.250Z,991.47
2023-03-11T11:19:36.463Z,991.40
2023-03-11T11:24:40.604Z,991.60
2023-03-11T11:29:44.760Z,991.60
2023-03-11T11:34:48.914Z,991.51
2023-03-11T11:39:53.125Z,991.56
2023-03-11T11:44:55.359Z,991.60
2023-03-11T11:49:59.540Z,991.64
2023-03-11T11:55:01.808Z,991.72
2023-03-11T12:00:06.002Z,991.57
2023-03-11T12:05:10.197Z,991.56
2023-03-11T12:10:22.719Z,991.69
2023-03-11T12:15:18.480Z,991.42
2023-03-11T12:20:22.615Z,991.65
2023-03-11T12:25:26.765Z,992.02
2023-03-11T12:30:30.993Z,992.09
2023-03-11T12:35:35.179Z,992.57
2023-03-11T12:40:39.272Z,993.01
2023-03-11T12:45:43.449Z,993.61
2023-03-11T12:50:47.622Z,994.29
2023-03-11T12:55:51.777Z,994.80
2023-03-11T13:00:55.914Z,995.44
2023-03-11T13:06:00.087Z,995.87
2023-03-11T13:11:04.224Z,996.47
2023-03-11T13:16:08.463Z,996.59
2023-03-11T13:21:12.592Z,996.23
2023-03-11T13:26:16.723Z,996.39
2023-03-11T13:31:20.968Z,995.74
2023-03-11T13:36:25.045Z,995.51
2023-03-11T13:41:27.324Z,996.31
2023-03-11T13:46:31.496Z,996.13
2023-03-11T13:51:35.669Z,996.52
2023-03-11T13:56:38.017Z,996.48
2023-03-11T14:01:42.086Z,996.60
2023-03-11T14:06:46.249Z,996.52
2023-03-11T14:11:50.433Z,996.76
2023-03-11T14:16:54.622Z,997.50
2023-03-11T14:21:58.764Z,998.62
2023-03-11T14:27:02.886Z,1000.62
2023-03-11T14:32:07.078Z,1000.75
2023-03-11T14:37:11.215Z,1001.08
2023-03-11T14:42:15.418Z,1001.29
2023-03-11T14:47:19.538Z,1001.31
2023-03-11T14:52:23.690Z,1001.33
2023-03-11T14:57:27.904Z,1001.36
2023-03-11T15:02:32.015Z,1001.40
2023-03-11T15:07:36.168Z,1001.41
2023-03-11T15:12:40.344Z,1001.24
2023-03-11T15:17:44.637Z,1001.28
2023-03-11T15:22:48.703Z,1001.32
2023-03-11T15:27:52.851Z,1001.36
2023-03-11T15:32:57.103Z,1001.24
2023-03-11T15:37:59.291Z,1001.20
2023-03-11T15:43:01.547Z,1000.99
2023-03-11T15:48:05.812Z,1001.26
2023-03-11T15:53:08.016Z,1001.44
2023-03-11T15:58:12.190Z,1001.18
2023-03-11T16:03:16.328Z,1001.34
2023-03-11T16:08:20.472Z,1001.23
2023-03-11T16:13:24.675Z,1001.29
2023-03-11T16:18:28.781Z,1001.53
2023-03-11T16:23:45.027Z,1001.43
2023-03-11T16:28:37.146Z,1001.45
2023-03-11T16:33:41.307Z,1001.45
2023-03-11T16:38:45.474Z,1001.42
2023-03-11T16:43:49.649Z,1001.38
2023-03-11T16:48:53.792Z,1001.48
2023-03-11T16:53:57.982Z,1001.68
2023-03-11T16:59:02.145Z,1001.63
2023-03-11T17:04:06.302Z,1001.73
2023-03-11T17:09:10.428Z,1001.67
2023-03-11T17:14:16.790Z,1001.80
2023-03-11T17:19:18.747Z,1001.69
2023-03-11T17:24:22.945Z,1001.48
2023-03-11T17:29:27.105Z,1001.25
2023-03-11T17:34:31.264Z,1001.05
2023-03-11T17:39:33.515Z,1000.71
2023-03-11T17:44:50.576Z,999.98
2023-03-11T17:49:41.848Z,998.23
2023-03-11T17:54:44.177Z,997.42
2023-03-11T17:59:48.310Z,995.13
2023-03-11T18:04:52.478Z,993.41
2023-03-11T18:09:56.673Z,992.55
2023-03-11T18:15:00.789Z,992.14
2023-03-11T18:20:04.978Z,991.91
2023-03-11T18:25:09.105Z,991.70
2023-03-11T18:30:13.331Z,991.41
2023-03-11T18:35:17.478Z,991.25
2023-03-11T18:40:21.621Z,991.20
2023-03-11T18:45:25.808Z,991.16
2023-03-11T18:50:29.953Z,991.06
2023-03-11T18:55:34.099Z,991.19
2023-03-11T19:00:38.282Z,991.34
2023-03-11T19:05:42.468Z,991.55
2023-03-11T19:10:46.642Z,991.90
2023-03-11T19:15:50.750Z,992.37
2023-03-11T19:20:54.923Z,992.73
2023-03-11T19:26:02.941Z,993.06
2023-03-11T19:31:03.384Z,993.58
2023-03-11T19:36:07.517Z,993.89
2023-03-11T19:41:09.707Z,994.07
2023-03-11T19:46:13.971Z,994.25
2023-03-11T19:51:16.196Z,994.41
2023-03-11T19:56:20.346Z,994.44
2023-03-11T20:01:24.498Z,994.58
2023-03-11T20:06:28.714Z,994.73
2023-03-11T20:11:32.822Z,994.87
2023-03-11T20:16:37.139Z,994.98
2023-03-11T20:21:41.171Z,994.90
2023-03-11T20:26:45.373Z,994.93
2023-03-11T20:31:49.656Z,994.97
2023-03-11T20:36:53.660Z,994.90
2023-03-11T20:41:57.859Z,994.86
2023-03-11T20:47:02.077Z,994.88
2023-03-11T20:52:06.199Z,994.84
2023-03-11T20:57:10.388Z,994.85
2023-03-11T21:02:14.608Z,994.74
2023-03-11T21:07:18.782Z,994.82
2023-03-11T21:12:22.924Z,994.83
2023-03-11T21:17:27.001Z,994.74
2023-03-11T21:22:31.208Z,994.83
2023-03-11T21:27:35.310Z,994.83
2023-03-11T21:32:39.593Z,994.81
2023-03-11T21:37:41.822Z,994.79
2023-03-11T21:42:45.950Z,994.74
2023-03-11T21:47:48.375Z,994.81
2023-03-11T21:52:52.475Z,994.66
2023-03-11T21:57:56.538Z,994.66
2023-03-11T22:03:00.814Z,994.73
2023-03-11T22:08:04.901Z,994.73
2023-03-11T22:13:09.103Z,994.74
2023-03-11T22:18:13.202Z,994.87
2023-03-11T22:23:17.409Z,994.88
2023-03-11T22:28:21.493Z,994.86
2023-03-11T22:33:25.668Z,994.82
2023-03-11T22:38:29.853Z,994.91
2023-03-11T22:43:34.071Z,994.90
2023-03-11T22:48:38.212Z,994.76
2023-03-11T22:53:42.380Z,994.76
2023-03-11T22:58:46.527Z,994.73
2023-03-11T23:03:50.747Z,994.68
2023-03-11T23:08:54.900Z,994.65
2023-03-11T23:13:59.056Z,994.47
2023-03-11T23:19:03.185Z,994.45
2023-03-11T23:24:07.331Z,994.42
2023-03-11T23:29:11.667Z,994.44
2023-03-11T23:34:13.786Z,994.39
2023-03-11T23:39:17.975Z,994.34
2023-03-11T23:44:20.271Z,994.30
2023-03-11T23:49:24.394Z,994.35
2023-03-11T23:54:28.589Z,994.32
2023-03-11T23:59:32.702Z,994.36
